Quick Links (Output Below):   Max & Min Temps   /   Climate Reports   /   Zone Forecasts
River Forecasts   /   Forestry Forecasts   /   Aviation Forecasts   /   Radars   /   Features

Terminal Aerodrome Forecast (Mountain Home)

Pick a Site:
Arkadelphia | El Dorado | Fayetteville | Fort Smith | Harrison | Highfill | Hot Springs | Jonesboro
Little Rock | Monticello | Mountain Home | Pine Bluff | Texarkana
 Forecast 

KBPK 222320Z 2300/2324 VRB05KT P6SM SCT250
     FM231200 15005KT P6SM SCT150 BKN250=


 Latest METARs (Observations) 
How to Decode METARs
02Z KBPK 230153Z AUTO 11006KT 9SM CLR 12/08 A3020 RMK AO2 SLP225
         T01220078
         
01Z KBPK 230053Z AUTO 00000KT 10SM CLR 12/09 A3018 RMK AO2 SLP219
         T01220089
         
00Z KBPK 222353Z AUTO 11003KT 8SM CLR 14/08 A3016 RMK AO2 SLP213
         T01440083 10200 20144 56006
         
***** Today's Observations (Above) *****


23Z KBPK 222253Z AUTO 13004KT 9SM CLR 18/09 A3016 RMK AO2 SLP212
         T01780089
         
22Z KBPK 222153Z AUTO 12006KT 10SM CLR 19/08 A3017 RMK AO2 SLP212
         T01940083
         
21Z KBPK 222053Z AUTO 12006KT 10SM CLR 19/08 A3018 RMK AO2 SLP216
         T01940083 56017
         
20Z KBPK 221953Z AUTO VRB03KT 9SM CLR 20/09 A3020 RMK AO2 SLP222
         T02000089
         
19Z KBPK 221853Z AUTO 12006KT 9SM CLR 19/08 A3020 RMK AO2 SLP222
         T01890078
         
18Z KBPK 221753Z AUTO VRB04KT 10SM CLR 18/08 A3023 RMK AO2 SLP234
         T01780083 10178 20083 58013
         
17Z KBPK 221653Z AUTO 16005KT 10SM CLR 17/08 A3027 RMK AO2 SLP248
         T01670083
         
***** Yesterday's Observations (Above) *****


Back to Main Page
http://www.srh.noaa.gov/lzk/qfcst.php

USA.gov is the U.S. government's official web portal to all federal, state and local government web resources and services.